Belle Chasse — WDG2912 — position and weather

sailwx.info

Track history (hours):
 
Tides and Currents Weather Stations Pressure Air Temp Water Temp Dewpoint Dewpoint Depression Visibility Wind Speed Wind Dir Waves Ship Positions

Belle Chasse

Owner: Higman Barge Lines, Inc, Orange, TX. More information available from US FCC via Universal Licensing System and Coast Guard Vessel Documentation Center.

Last reported at 2017-May-25 05:00 UTC. Time now 2017-May-25 05:15 UTC.
Position N 29°34' W 090°23'.

Length 26 m; draft 3 m.

Type: Towing. MMSI: 367520550.

Date/timePositionNaut miles runAvg speedWind from/ knotsBaromVisibWave heightAir tempDewpointWater temp
2017-May-25 05:00N 29°34' W 090°23'2 4.6
2017-May-25 04:30N 29°33' W 090°26'3 6.6
2017-May-25 04:00N 29°34' W 090°30'3 6.5
2017-May-25 03:30N 29°34' W 090°33'3 5.5
2017-May-25 03:00N 29°35' W 090°36'3 5.9
2017-May-25 02:30N 29°36' W 090°39'3 5.3
2017-May-25 02:00N 29°37' W 090°42'2 4.8
2017-May-25 01:30N 29°35' W 090°43'2 4.6
2017-May-25 01:00N 29°33' W 090°45'2 3.5
2017-May-25 00:30N 29°32' W 090°47'0 0.0
2017-May-25 00:00N 29°32' W 090°47'0 0.0
2017-May-24 23:30N 29°32' W 090°47'0 0.0
2017-May-24 23:00N 29°32' W 090°47'0 0.6
2017-May-24 22:30N 29°32' W 090°46'2 4.6
2017-May-24 22:00N 29°32' W 090°49'60 3.9
2017-May-24 06:54N 29°51' W 091°54'2 5.2
2017-May-24 06:29N 29°51' W 091°57'2 4.0
2017-May-24 06:00N 29°50' W 091°59'3 5.3
2017-May-24 05:31N 29°49' W 092°02'3 5.2
2017-May-24 05:00N 29°48' W 092°05'3 5.1
2017-May-24 04:30N 29°47' W 092°07'3 5.5
2017-May-24 04:00N 29°47' W 092°10'3 5.6
2017-May-24 03:30N 29°48' W 092°13'0 0.5
2017-May-24 02:58N 29°48' W 092°14'0 0.0
2017-May-24 02:28N 29°48' W 092°14'1 1.9
2017-May-24 02:00N 29°48' W 092°15'1 2.5
2017-May-24 01:29N 29°49' W 092°16'1 3.0
2017-May-24 01:00N 29°49' W 092°17'2 4.2
2017-May-24 00:31N 29°50' W 092°19'2 4.4
2017-May-24 00:01N 29°51' W 092°22'1 2.5
2017-May-23 23:30N 29°52' W 092°23'2 3.9
2017-May-23 23:00N 29°53' W 092°24'34 4.2
2017-May-23 14:57N 29°56' W 093°03'2 4.6
2017-May-23 14:29N 29°56' W 093°05'4 4.1
2017-May-23 13:30N 29°57' W 093°10'2 4.4
2017-May-23 13:00N 29°58' W 093°12'2 4.5
2017-May-23 12:30N 29°60' W 093°13'2 4.3
2017-May-23 12:00N 30°02' W 093°15'2 3.5
2017-May-23 11:30N 30°03' W 093°16'2 3.9
2017-May-23 11:00N 30°05' W 093°17'1 2.8
2017-May-23 10:30N 30°06' W 093°18'0 0.2
2017-May-23 10:00N 30°06' W 093°18'0 0.2
2017-May-23 09:30N 30°06' W 093°18'0 0.0
2017-May-23 09:00N 30°06' W 093°18'0 0.0
2017-May-23 08:30N 30°06' W 093°18'1 1.7
2017-May-23 08:00N 30°06' W 093°19'3 5.7
2017-May-23 07:30N 30°04' W 093°21'3 5.5
2017-May-23 07:00N 30°04' W 093°24'3 5.3
2017-May-23 06:30N 30°04' W 093°28'3 5.5
2017-May-23 06:00N 30°04' W 093°31'3 5.4
2017-May-23 05:30N 30°04' W 093°34'3 5.1
2017-May-23 05:00N 30°04' W 093°37'3 4.9
2017-May-23 04:24N 30°04' W 093°40'  
2017-May-18 16:32N 30°03' W 093°42'0 5.5
2017-May-18 16:29N 30°03' W 093°42'1 2.2
2017-May-18 15:58N 30°04' W 093°40'1 1.5
2017-May-18 14:59N 30°04' W 093°39'  
2017-May-16 00:34N 30°03' W 093°44'0 5.4
2017-May-16 00:31N 30°03' W 093°43'2 4.9
2017-May-16 00:00N 30°04' W 093°41'2 4.9
2017-May-15 23:31N 30°04' W 093°38'2 4.5
2017-May-15 23:00N 30°04' W 093°35'2 4.3
2017-May-15 22:31N 30°04' W 093°33'2 4.5
2017-May-15 22:00N 30°04' W 093°30'2 4.5
2017-May-15 21:31N 30°04' W 093°28'2 4.4
2017-May-15 21:01N 30°04' W 093°25'2 3.6
2017-May-15 20:30N 30°04' W 093°23'2 3.8
2017-May-15 20:01N 30°04' W 093°21'2 3.1
2017-May-15 19:30N 30°05' W 093°20'2 3.3
2017-May-15 19:00N 30°05' W 093°18'2 4.5
2017-May-15 18:30N 30°04' W 093°16'2 4.4
2017-May-15 18:00N 30°02' W 093°15'2 4.7
2017-May-15 17:30N 29°60' W 093°13'3 5.2
2017-May-15 17:00N 29°58' W 093°11'3 5.1
2017-May-15 16:30N 29°56' W 093°09'3 5.3
2017-May-15 15:59N 29°56' W 093°06'2 5.0
2017-May-15 15:29N 29°56' W 093°03'  
Track history (hours):
 
Tides and Currents Weather Stations Pressure Air Temp Water Temp Dewpoint Dewpoint Depression Visibility Wind Speed Wind Dir Waves Ship Positions

Belle Chasse

Owner: Higman Barge Lines, Inc, Orange, TX. More information available from US FCC via Universal Licensing System and Coast Guard Vessel Documentation Center.

Last reported at 2017-May-25 05:00 UTC. Time now 2017-May-25 05:15 UTC.
Position N 29°34' W 090°23'.

Length 26 m; draft 3 m.

Type: Towing. MMSI: 367520550.

Date/timePositionNaut miles runAvg speedWind from/ knotsBaromVisibWave heightAir tempDewpointWater temp
2017-May-25 05:00N 29°34' W 090°23'2 4.6
2017-May-25 04:30N 29°33' W 090°26'3 6.6
2017-May-25 04:00N 29°34' W 090°30'3 6.5
2017-May-25 03:30N 29°34' W 090°33'3 5.5
2017-May-25 03:00N 29°35' W 090°36'3 5.9
2017-May-25 02:30N 29°36' W 090°39'3 5.3
2017-May-25 02:00N 29°37' W 090°42'2 4.8
2017-May-25 01:30N 29°35' W 090°43'2 4.6
2017-May-25 01:00N 29°33' W 090°45'2 3.5
2017-May-25 00:30N 29°32' W 090°47'0 0.0
2017-May-25 00:00N 29°32' W 090°47'0 0.0
2017-May-24 23:30N 29°32' W 090°47'0 0.0
2017-May-24 23:00N 29°32' W 090°47'0 0.6
2017-May-24 22:30N 29°32' W 090°46'2 4.6
2017-May-24 22:00N 29°32' W 090°49'60 3.9
2017-May-24 06:54N 29°51' W 091°54'2 5.2
2017-May-24 06:29N 29°51' W 091°57'2 4.0
2017-May-24 06:00N 29°50' W 091°59'3 5.3
2017-May-24 05:31N 29°49' W 092°02'3 5.2
2017-May-24 05:00N 29°48' W 092°05'3 5.1
2017-May-24 04:30N 29°47' W 092°07'3 5.5
2017-May-24 04:00N 29°47' W 092°10'3 5.6
2017-May-24 03:30N 29°48' W 092°13'0 0.5
2017-May-24 02:58N 29°48' W 092°14'0 0.0
2017-May-24 02:28N 29°48' W 092°14'1 1.9
2017-May-24 02:00N 29°48' W 092°15'1 2.5
2017-May-24 01:29N 29°49' W 092°16'1 3.0
2017-May-24 01:00N 29°49' W 092°17'2 4.2
2017-May-24 00:31N 29°50' W 092°19'2 4.4
2017-May-24 00:01N 29°51' W 092°22'1 2.5
2017-May-23 23:30N 29°52' W 092°23'2 3.9
2017-May-23 23:00N 29°53' W 092°24'34 4.2
2017-May-23 14:57N 29°56' W 093°03'2 4.6
2017-May-23 14:29N 29°56' W 093°05'4 4.1
2017-May-23 13:30N 29°57' W 093°10'2 4.4
2017-May-23 13:00N 29°58' W 093°12'2 4.5
2017-May-23 12:30N 29°60' W 093°13'2 4.3
2017-May-23 12:00N 30°02' W 093°15'2 3.5
2017-May-23 11:30N 30°03' W 093°16'2 3.9
2017-May-23 11:00N 30°05' W 093°17'1 2.8
2017-May-23 10:30N 30°06' W 093°18'0 0.2
2017-May-23 10:00N 30°06' W 093°18'0 0.2
2017-May-23 09:30N 30°06' W 093°18'0 0.0
2017-May-23 09:00N 30°06' W 093°18'0 0.0
2017-May-23 08:30N 30°06' W 093°18'1 1.7
2017-May-23 08:00N 30°06' W 093°19'3 5.7
2017-May-23 07:30N 30°04' W 093°21'3 5.5
2017-May-23 07:00N 30°04' W 093°24'3 5.3
2017-May-23 06:30N 30°04' W 093°28'3 5.5
2017-May-23 06:00N 30°04' W 093°31'3 5.4
2017-May-23 05:30N 30°04' W 093°34'3 5.1
2017-May-23 05:00N 30°04' W 093°37'3 4.9
2017-May-23 04:24N 30°04' W 093°40'  
2017-May-18 16:32N 30°03' W 093°42'0 5.5
2017-May-18 16:29N 30°03' W 093°42'1 2.2
2017-May-18 15:58N 30°04' W 093°40'1 1.5
2017-May-18 14:59N 30°04' W 093°39'  
2017-May-16 00:34N 30°03' W 093°44'0 5.4
2017-May-16 00:31N 30°03' W 093°43'2 4.9
2017-May-16 00:00N 30°04' W 093°41'2 4.9
2017-May-15 23:31N 30°04' W 093°38'2 4.5
2017-May-15 23:00N 30°04' W 093°35'2 4.3
2017-May-15 22:31N 30°04' W 093°33'2 4.5
2017-May-15 22:00N 30°04' W 093°30'2 4.5
2017-May-15 21:31N 30°04' W 093°28'2 4.4
2017-May-15 21:01N 30°04' W 093°25'2 3.6
2017-May-15 20:30N 30°04' W 093°23'2 3.8
2017-May-15 20:01N 30°04' W 093°21'2 3.1
2017-May-15 19:30N 30°05' W 093°20'2 3.3
2017-May-15 19:00N 30°05' W 093°18'2 4.5
2017-May-15 18:30N 30°04' W 093°16'2 4.4
2017-May-15 18:00N 30°02' W 093°15'2 4.7
2017-May-15 17:30N 29°60' W 093°13'3 5.2
2017-May-15 17:00N 29°58' W 093°11'3 5.1
2017-May-15 16:30N 29°56' W 093°09'3 5.3
2017-May-15 15:59N 29°56' W 093°06'2 5.0
2017-May-15 15:29N 29°56' W 093°03'  

Dump ship's entire track history